Aérodrome :
LOGIN :

S'inscrire | Disclaimer

   EN    FR    IT 

 










Légende :    VFR   VFR Marginal   IFR   IFR Intensif   IFR Très Intensif
Visi : 
Plafond : 
>= 8 km
>= 3000ft
5 à 8 km
1000 à 3000 ft
1500m à 5 km
500 à 1000 ft
800 à 1500m
200 à 500 ft
< 800m
< 200 ft
Symboles :   Orages  Brouillard  Fortes neiges  Fortes précipitations  Vent > 20 kt
SIGMETs :   Divers  Orages  Givrage  Turbulence  Onde Orograph.  Cendres Volcan.






- Altitude de l'aérodrome : 1046 ft
- Code IATA : FDE


ENBL - Bringeland

DERNIER METAR :
  • 212120Z 29019KT 9999 VCSH FEW010 SCT015 BKN018 04/M01 Q1024

METARs EXPIRÉS :
  • 212050Z 28015KT 9000 -SHRA FEW010 SCT015 BKN020 04/M00 Q1024
  • 212020Z 28014KT 9999 VCSH FEW010 SCT015 BKN020 04/00 Q1024
  • 211950Z 20005KT 5000 -SHRASN FEW003 SCT007 BKN010 02/01 Q1024
  • 211850Z 29007KT 3300 -SHRASN SCT003 BKN009 02/01 Q1023

TAF N/A



MET'MAP, la Météo Aéronautique d'un coup d'oeil ! - Copyright ORBIFLY Décembre 2007 - Disclaimer

ORBIFLY MET'MAP TEAM :

Programmation & Développement : Alexandra Zaïnal
Sur une idée originale de : Baudouin d'Aumeries
Assistance à la programmation : Marc-Olivier Méhu
Soutien technique & logistique : Manuel Goepfert

Contact : metmap@orbifly.com




SOURCES & CREDITS :

   NOAA